createdAt,value
2022-09-23T00:03:54.860Z,84.11
2022-09-23T00:08:57.001Z,84.25
2022-09-23T00:14:00.280Z,84.39
2022-09-23T00:19:09.621Z,84.73
2022-09-23T00:24:11.642Z,84.94
2022-09-23T00:29:13.724Z,85.08
2022-09-23T00:34:15.669Z,85.35
2022-09-23T00:39:17.585Z,85.46
2022-09-23T00:44:45.570Z,85.47
2022-09-23T00:49:50.171Z,85.36
2022-09-23T00:54:55.181Z,85.14
2022-09-23T00:59:58.002Z,85.25
2022-09-23T01:05:20.732Z,85.43
2022-09-23T01:10:56.477Z,85.76
2022-09-23T01:16:39.740Z,85.86
2022-09-23T01:22:21.927Z,86.04
2022-09-23T01:27:36.568Z,86.47
2022-09-23T01:32:47.295Z,86.49
2022-09-23T01:38:33.750Z,86.67
2022-09-23T01:43:53.205Z,86.57
2022-09-23T01:49:39.042Z,86.69
2022-09-23T01:54:57.394Z,86.69
2022-09-23T02:00:11.604Z,86.55
2022-09-23T02:05:20.322Z,86.57
2022-09-23T02:10:36.116Z,86.59
2022-09-23T02:15:45.863Z,86.80
2022-09-23T02:20:50.991Z,86.83
2022-09-23T02:26:08.901Z,86.93
2022-09-23T02:31:42.110Z,86.99
2022-09-23T02:37:16.636Z,87.09
2022-09-23T02:42:23.341Z,87.11
2022-09-23T02:47:31.471Z,87.13
2022-09-23T02:52:33.634Z,87.32
2022-09-23T02:57:35.785Z,87.59
2022-09-23T03:02:51.817Z,87.78
2022-09-23T03:08:25.786Z,87.84
2022-09-23T03:13:58.640Z,88.00
2022-09-23T03:19:40.653Z,88.21
2022-09-23T03:25:02.914Z,88.11
2022-09-23T03:30:07.265Z,87.87
2022-09-23T03:35:09.524Z,87.59
2022-09-23T03:40:17.483Z,87.44
2022-09-23T03:45:26.354Z,87.53
2022-09-23T03:50:28.791Z,87.55
2022-09-23T03:55:46.642Z,87.59
2022-09-23T04:00:57.783Z,87.75
2022-09-23T04:05:59.634Z,87.76
2022-09-23T04:11:04.352Z,87.59
2022-09-23T04:16:06.465Z,87.01
2022-09-23T04:21:08.285Z,86.76
2022-09-23T04:26:16.647Z,86.92
2022-09-23T04:31:29.306Z,86.98
2022-09-23T04:36:31.478Z,86.72
2022-09-23T04:41:39.703Z,86.49
2022-09-23T04:47:01.141Z,86.52
2022-09-23T04:52:05.460Z,86.61
2022-09-23T04:57:07.240Z,86.79
2022-09-23T05:02:09.340Z,86.78
2022-09-23T05:07:21.363Z,86.39
2022-09-23T05:12:24.257Z,85.82
2022-09-23T05:17:26.003Z,85.14
2022-09-23T05:22:30.051Z,84.70
2022-09-23T05:27:32.017Z,84.47
2022-09-23T05:32:33.863Z,84.49
2022-09-23T05:37:35.624Z,84.70
2022-09-23T05:42:37.405Z,84.71
2022-09-23T05:47:39.949Z,84.74
2022-09-23T05:52:41.708Z,84.82
2022-09-23T05:57:43.522Z,84.71
2022-09-23T06:02:47.519Z,84.87
2022-09-23T06:07:49.340Z,84.86
2022-09-23T06:12:51.180Z,84.85
2022-09-23T06:17:59.676Z,84.78
2022-09-23T06:23:11.284Z,84.76
2022-09-23T06:28:14.555Z,84.74
2022-09-23T06:33:18.724Z,84.60
2022-09-23T06:47:01.613Z,85.01
2022-09-23T06:52:03.461Z,84.78
2022-09-23T06:57:05.371Z,84.54
2022-09-23T07:02:07.618Z,84.37
2022-09-23T07:07:11.534Z,83.94
2022-09-23T07:12:14.002Z,83.48
2022-09-23T07:17:15.804Z,82.85
2022-09-23T07:22:18.658Z,82.36
2022-09-23T07:27:20.425Z,81.64
2022-09-23T07:32:23.067Z,80.69
2022-09-23T07:37:24.884Z,80.10
2022-09-23T07:42:26.628Z,79.82
2022-09-23T07:47:28.374Z,79.24
2022-09-23T07:52:30.208Z,78.53
2022-09-23T07:57:32.975Z,77.80
2022-09-23T08:02:54.978Z,76.75
2022-09-23T08:07:56.954Z,76.46
2022-09-23T08:13:01.065Z,75.76
2022-09-23T08:18:02.955Z,75.29
2022-09-23T08:23:04.723Z,73.26
2022-09-23T08:28:06.878Z,70.68
2022-09-23T08:33:08.653Z,69.72
2022-09-23T08:38:10.616Z,70.11
2022-09-23T08:43:40.746Z,69.57
2022-09-23T08:48:46.378Z,69.83
2022-09-23T08:53:48.174Z,68.29
2022-09-23T08:59:14.833Z,66.80
2022-09-23T09:04:40.603Z,65.88
2022-09-23T09:10:21.304Z,64.92
2022-09-23T09:15:29.069Z,61.47
2022-09-23T09:20:39.716Z,61.77
2022-09-23T09:25:45.033Z,61.38
2022-09-23T09:30:52.595Z,59.06
2022-09-23T09:36:36.082Z,57.52
2022-09-23T09:41:41.897Z,58.68
2022-09-23T09:46:52.917Z,59.49
2022-09-23T09:52:15.920Z,60.70
2022-09-23T09:57:39.754Z,60.05
2022-09-23T10:02:41.845Z,57.58
2022-09-23T10:07:43.674Z,55.84
2022-09-23T10:12:47.113Z,56.35
2022-09-23T10:17:50.299Z,55.68
2022-09-23T10:22:56.866Z,53.48
2022-09-23T10:27:58.603Z,52.70
2022-09-23T10:33:34.731Z,53.03
2022-09-23T10:38:55.300Z,53.07
2022-09-23T10:44:41.420Z,53.58
2022-09-23T10:50:03.976Z,54.96
2022-09-23T10:55:19.395Z,55.27
2022-09-23T11:01:04.460Z,55.93
2022-09-23T11:06:49.739Z,56.69
2022-09-23T11:12:24.214Z,56.92
2022-09-23T11:17:45.881Z,55.22
2022-09-23T11:23:13.957Z,53.64
2022-09-23T11:29:02.429Z,51.44
2022-09-23T11:34:35.040Z,48.73
2022-09-23T11:39:40.368Z,48.79
2022-09-23T11:44:49.989Z,44.32
2022-09-23T11:50:00.406Z,43.95
2022-09-23T11:55:22.690Z,42.93
2022-09-23T12:00:30.164Z,45.91
2022-09-23T12:05:35.346Z,47.14
2022-09-23T12:10:56.254Z,45.30
2022-09-23T12:16:16.938Z,45.91
2022-09-23T12:21:51.523Z,47.35
2022-09-23T12:26:59.378Z,46.04
2022-09-23T12:32:05.501Z,44.99
2022-09-23T12:37:07.379Z,44.41
2022-09-23T12:42:17.231Z,41.65
2022-09-23T12:47:25.054Z,42.67
2022-09-23T12:52:33.499Z,43.25
2022-09-23T12:57:35.378Z,43.19
2022-09-23T13:03:21.079Z,44.30
2022-09-23T13:08:25.188Z,45.80
2022-09-23T13:13:31.740Z,45.69
2022-09-23T13:18:48.977Z,45.28
2022-09-23T13:24:19.681Z,44.38
2022-09-23T13:29:33.346Z,44.12
2022-09-23T13:34:41.680Z,44.10
2022-09-23T13:39:50.660Z,42.71
2022-09-23T13:45:00.455Z,42.58
2022-09-23T13:50:02.992Z,43.22
2022-09-23T13:55:05.627Z,44.27
2022-09-23T14:00:21.353Z,44.38
2022-09-23T14:05:26.377Z,43.56
2022-09-23T14:10:28.494Z,43.63
2022-09-23T14:15:31.127Z,43.69
2022-09-23T14:20:34.416Z,44.91
2022-09-23T14:25:37.066Z,45.40
2022-09-23T14:30:39.535Z,45.54
2022-09-23T14:35:46.546Z,45.07
2022-09-23T14:41:15.292Z,44.88
2022-09-23T14:46:20.407Z,44.94
2022-09-23T14:51:29.621Z,44.90
2022-09-23T14:56:42.216Z,44.20
2022-09-23T15:01:43.963Z,43.67
2022-09-23T15:07:07.622Z,44.32
2022-09-23T15:12:15.740Z,44.79
2022-09-23T15:17:30.679Z,45.06
2022-09-23T15:22:46.477Z,45.81
2022-09-23T15:27:59.215Z,46.09
2022-09-23T15:33:01.211Z,46.29
2022-09-23T15:38:03.271Z,46.18
2022-09-23T15:43:30.770Z,45.83
2022-09-23T15:48:46.017Z,44.98
2022-09-23T15:53:48.044Z,45.39
2022-09-23T15:58:50.321Z,45.96
2022-09-23T16:03:52.537Z,45.86
2022-09-23T16:08:54.758Z,45.93
2022-09-23T16:13:56.687Z,45.93
2022-09-23T16:18:58.509Z,46.38
2022-09-23T16:24:28.063Z,46.44
2022-09-23T16:29:30.368Z,47.19
2022-09-23T16:34:34.831Z,49.29
2022-09-23T16:39:36.542Z,50.94
2022-09-23T16:44:41.476Z,51.69
2022-09-23T16:49:43.345Z,53.33
2022-09-23T16:54:47.872Z,53.68
2022-09-23T17:00:09.001Z,55.03
2022-09-23T17:05:13.130Z,58.24
2022-09-23T17:10:18.816Z,59.71
2022-09-23T17:15:21.981Z,59.98
2022-09-23T17:20:23.878Z,63.71
2022-09-23T17:25:26.679Z,66.44
2022-09-23T17:30:28.936Z,66.41
2022-09-23T17:35:30.843Z,67.67
2022-09-23T17:40:33.187Z,68.49
2022-09-23T17:45:38.418Z,69.25
2022-09-23T17:50:40.370Z,68.49
2022-09-23T17:55:42.186Z,68.50
2022-09-23T18:00:46.528Z,68.75
2022-09-23T18:05:48.560Z,68.41
2022-09-23T18:10:50.454Z,68.72
2022-09-23T18:15:52.234Z,69.05
2022-09-23T18:21:00.205Z,70.32
2022-09-23T18:26:02.119Z,70.11
2022-09-23T18:31:04.194Z,70.96
2022-09-23T18:36:07.322Z,71.67
2022-09-23T18:41:09.498Z,73.00
2022-09-23T18:46:14.465Z,74.39
2022-09-23T18:51:18.239Z,75.22
2022-09-23T18:56:21.262Z,75.79
2022-09-23T19:01:24.705Z,75.90
2022-09-23T19:06:29.008Z,75.52
2022-09-23T19:11:32.212Z,74.68
2022-09-23T19:16:35.712Z,74.69
2022-09-23T19:21:37.518Z,75.03
2022-09-23T19:26:40.920Z,75.31
2022-09-23T19:31:43.901Z,76.66
2022-09-23T19:36:48.153Z,77.61
2022-09-23T19:41:51.350Z,77.71
2022-09-23T19:46:57.070Z,77.24
2022-09-23T19:51:59.307Z,76.95
2022-09-23T19:57:01.401Z,76.70
2022-09-23T20:02:03.738Z,77.47
2022-09-23T20:07:05.633Z,78.21
2022-09-23T20:12:07.541Z,78.50
2022-09-23T20:17:09.285Z,77.65
2022-09-23T20:22:33.493Z,77.21
2022-09-23T20:27:35.492Z,77.00
2022-09-23T20:32:44.022Z,77.08
2022-09-23T20:37:46.557Z,77.82
2022-09-23T20:42:59.031Z,78.39
2022-09-23T20:48:03.263Z,78.35
2022-09-23T20:53:05.011Z,78.77
2022-09-23T20:58:06.745Z,78.05
2022-09-23T21:03:09.442Z,77.24
2022-09-23T21:08:11.181Z,77.62
2022-09-23T21:13:13.079Z,77.88
2022-09-23T21:18:19.190Z,77.86
2022-09-23T21:23:26.202Z,78.79
2022-09-23T21:28:33.215Z,79.52
2022-09-23T21:33:37.620Z,79.86
2022-09-23T21:38:39.575Z,79.62
2022-09-23T21:43:41.600Z,78.84
2022-09-23T21:48:43.696Z,79.36
2022-09-23T21:53:46.625Z,79.31
2022-09-23T21:58:49.674Z,79.71
2022-09-23T22:03:54.464Z,79.94
2022-09-23T22:09:01.413Z,79.98
2022-09-23T22:14:05.822Z,79.81
2022-09-23T22:19:08.945Z,79.78
2022-09-23T22:24:12.694Z,79.92
2022-09-23T22:29:34.551Z,79.75
2022-09-23T22:34:56.845Z,79.64
2022-09-23T22:40:14.319Z,79.31
2022-09-23T22:45:18.861Z,79.04
2022-09-23T22:50:20.617Z,79.00
2022-09-23T22:55:22.564Z,78.74
2022-09-23T23:00:24.330Z,78.63
2022-09-23T23:05:26.041Z,78.71
2022-09-23T23:10:28.157Z,78.67
2022-09-23T23:15:30.569Z,78.54
2022-09-23T23:20:32.786Z,78.48
2022-09-23T23:25:34.779Z,78.47
2022-09-23T23:30:36.578Z,78.55
2022-09-23T23:35:38.793Z,78.50
2022-09-23T23:40:40.609Z,78.30
2022-09-23T23:45:43.683Z,78.09
2022-09-23T23:50:56.542Z,77.60
2022-09-23T23:56:02.258Z,77.80
